sensor_id;sensor_type;location;lat;lon;timestamp;pressure;altitude;pressure_sealevel;temperature;humidity
54503;BME280;40411;50.090;21.954;2023-08-12T00:01:03;52902.91;;;13.85;100.00
54503;BME280;40411;50.090;21.954;2023-08-12T00:03:33;53382.50;;;13.57;100.00
54503;BME280;40411;50.090;21.954;2023-08-12T00:05:59;53703.19;;;13.39;100.00
54503;BME280;40411;50.090;21.954;2023-08-12T00:08:27;54669.75;;;12.81;100.00
54503;BME280;40411;50.090;21.954;2023-08-12T00:10:53;54788.59;;;12.63;100.00
54503;BME280;40411;50.090;21.954;2023-08-12T00:13:18;54759.84;;;12.68;100.00
54503;BME280;40411;50.090;21.954;2023-08-12T00:15:45;52780.25;;;13.83;100.00
54503;BME280;40411;50.090;21.954;2023-08-12T00:18:10;52620.13;;;14.03;100.00
54503;BME280;40411;50.090;21.954;2023-08-12T00:20:36;52238.84;;;14.27;100.00
54503;BME280;40411;50.090;21.954;2023-08-12T00:23:04;53413.63;;;13.69;100.00
54503;BME280;40411;50.090;21.954;2023-08-12T00:25:30;54169.09;;;13.11;100.00
54503;BME280;40411;50.090;21.954;2023-08-12T00:27:55;54153.41;;;13.11;100.00
54503;BME280;40411;50.090;21.954;2023-08-12T00:30:21;54098.88;;;13.17;100.00
54503;BME280;40411;50.090;21.954;2023-08-12T00:32:47;53485.91;;;13.59;100.00
54503;BME280;40411;50.090;21.954;2023-08-12T00:35:13;53173.19;;;13.83;100.00
54503;BME280;40411;50.090;21.954;2023-08-12T00:37:39;54073.06;;;13.29;100.00
54503;BME280;40411;50.090;21.954;2023-08-12T00:40:05;54127.06;;;13.28;100.00
54503;BME280;40411;50.090;21.954;2023-08-12T00:42:32;54243.09;;;13.23;100.00
54503;BME280;40411;50.090;21.954;2023-08-12T00:44:58;54206.28;;;13.20;100.00
54503;BME280;40411;50.090;21.954;2023-08-12T00:47:24;53292.03;;;13.70;100.00
54503;BME280;40411;50.090;21.954;2023-08-12T00:49:50;52956.72;;;13.99;99.67
54503;BME280;40411;50.090;21.954;2023-08-12T00:52:17;52955.16;;;14.03;99.32
54503;BME280;40411;50.090;21.954;2023-08-12T00:54:43;52993.78;;;14.08;98.58
54503;BME280;40411;50.090;21.954;2023-08-12T00:57:09;53045.53;;;14.04;98.79
54503;BME280;40411;50.090;21.954;2023-08-12T00:59:36;53294.66;;;13.96;98.46
54503;BME280;40411;50.090;21.954;2023-08-12T01:02:05;54246.56;;;13.35;100.00
54503;BME280;40411;50.090;21.954;2023-08-12T01:04:31;54497.09;;;13.15;100.00
54503;BME280;40411;50.090;21.954;2023-08-12T01:06:57;54546.31;;;13.09;100.00
54503;BME280;40411;50.090;21.954;2023-08-12T01:09:23;54839.41;;;12.89;100.00
54503;BME280;40411;50.090;21.954;2023-08-12T01:14:51;54842.25;;;12.92;100.00
54503;BME280;40411;50.090;21.954;2023-08-12T01:17:21;54410.00;;;13.23;100.00
54503;BME280;40411;50.090;21.954;2023-08-12T01:19:47;54739.59;;;13.00;100.00
54503;BME280;40411;50.090;21.954;2023-08-12T01:22:14;54805.19;;;12.97;100.00
54503;BME280;40411;50.090;21.954;2023-08-12T01:24:43;54414.34;;;13.16;100.00
54503;BME280;40411;50.090;21.954;2023-08-12T01:27:10;54297.25;;;13.31;100.00
54503;BME280;40411;50.090;21.954;2023-08-12T01:29:42;54010.28;;;13.49;100.00
54503;BME280;40411;50.090;21.954;2023-08-12T01:35:03;54559.84;;;13.15;100.00
54503;BME280;40411;50.090;21.954;2023-08-12T01:37:32;54076.00;;;13.40;100.00
54503;BME280;40411;50.090;21.954;2023-08-12T01:40:01;53984.09;;;13.49;100.00
54503;BME280;40411;50.090;21.954;2023-08-12T01:42:30;53574.59;;;13.70;100.00
54503;BME280;40411;50.090;21.954;2023-08-12T01:44:58;54214.66;;;13.40;100.00
54503;BME280;40411;50.090;21.954;2023-08-12T01:47:24;54041.47;;;13.46;100.00
54503;BME280;40411;50.090;21.954;2023-08-12T01:49:50;53869.38;;;13.55;100.00
54503;BME280;40411;50.090;21.954;2023-08-12T01:52:15;54738.19;;;12.87;100.00
54503;BME280;40411;50.090;21.954;2023-08-12T01:54:41;54324.28;;;13.12;100.00
54503;BME280;40411;50.090;21.954;2023-08-12T01:57:07;53809.03;;;13.52;100.00
54503;BME280;40411;50.090;21.954;2023-08-12T01:59:35;53968.41;;;13.49;100.00
54503;BME280;40411;50.090;21.954;2023-08-12T02:02:01;54265.88;;;13.31;100.00
54503;BME280;40411;50.090;21.954;2023-08-12T02:04:27;54198.06;;;13.34;100.00
54503;BME280;40411;50.090;21.954;2023-08-12T02:06:54;54165.88;;;13.41;100.00
54503;BME280;40411;50.090;21.954;2023-08-12T02:09:20;54004.63;;;13.43;100.00
54503;BME280;40411;50.090;21.954;2023-08-12T02:11:46;54437.66;;;13.13;100.00
54503;BME280;40411;50.090;21.954;2023-08-12T02:14:12;54337.25;;;13.23;100.00
54503;BME280;40411;50.090;21.954;2023-08-12T02:16:38;53408.72;;;13.83;99.10
54503;BME280;40411;50.090;21.954;2023-08-12T02:19:04;53825.34;;;13.70;99.25
54503;BME280;40411;50.090;21.954;2023-08-12T02:21:30;54180.66;;;13.40;100.00
54503;BME280;40411;50.090;21.954;2023-08-12T02:23:57;54307.25;;;13.30;100.00
54503;BME280;40411;50.090;21.954;2023-08-12T02:26:22;54116.00;;;13.38;100.00
54503;BME280;40411;50.090;21.954;2023-08-12T02:28:48;54008.84;;;13.47;100.00
54503;BME280;40411;50.090;21.954;2023-08-12T02:31:16;53525.13;;;13.82;98.99
54503;BME280;40411;50.090;21.954;2023-08-12T02:33:42;54960.63;;;12.96;100.00
54503;BME280;40411;50.090;21.954;2023-08-12T02:36:08;54052.31;;;13.52;100.00
54503;BME280;40411;50.090;21.954;2023-08-12T02:38:34;54161.50;;;13.48;100.00
54503;BME280;40411;50.090;21.954;2023-08-12T02:41:00;53966.53;;;13.47;100.00
54503;BME280;40411;50.090;21.954;2023-08-12T02:43:26;53901.97;;;13.53;100.00
54503;BME280;40411;50.090;21.954;2023-08-12T02:45:52;53439.22;;;13.82;99.90
54503;BME280;40411;50.090;21.954;2023-08-12T02:48:18;53498.63;;;13.84;97.87
54503;BME280;40411;50.090;21.954;2023-08-12T02:50:44;54934.03;;;12.95;100.00
54503;BME280;40411;50.090;21.954;2023-08-12T02:53:10;55443.91;;;12.51;100.00
54503;BME280;40411;50.090;21.954;2023-08-12T02:55:35;55986.56;;;12.06;100.00
54503;BME280;40411;50.090;21.954;2023-08-12T02:58:03;55012.38;;;12.67;100.00
54503;BME280;40411;50.090;21.954;2023-08-12T03:00:29;54564.88;;;13.01;100.00
54503;BME280;40411;50.090;21.954;2023-08-12T03:02:56;54446.44;;;13.14;100.00
54503;BME280;40411;50.090;21.954;2023-08-12T03:05:22;54225.72;;;13.30;100.00
54503;BME280;40411;50.090;21.954;2023-08-12T03:07:48;54960.16;;;12.95;100.00
54503;BME280;40411;50.090;21.954;2023-08-12T03:10:14;54981.28;;;12.76;100.00
54503;BME280;40411;50.090;21.954;2023-08-12T03:12:40;55014.78;;;12.81;100.00
54503;BME280;40411;50.090;21.954;2023-08-12T03:15:07;54874.59;;;12.82;100.00
54503;BME280;40411;50.090;21.954;2023-08-12T03:17:33;54429.81;;;13.13;100.00
54503;BME280;40411;50.090;21.954;2023-08-12T03:20:00;54136.50;;;13.32;100.00
54503;BME280;40411;50.090;21.954;2023-08-12T03:22:29;54660.94;;;12.97;100.00
54503;BME280;40411;50.090;21.954;2023-08-12T03:24:56;54853.22;;;12.76;100.00
54503;BME280;40411;50.090;21.954;2023-08-12T03:27:22;54829.19;;;12.64;100.00
54503;BME280;40411;50.090;21.954;2023-08-12T03:29:49;54128.06;;;13.03;100.00
54503;BME280;40411;50.090;21.954;2023-08-12T03:32:15;53364.47;;;13.46;100.00
54503;BME280;40411;50.090;21.954;2023-08-12T03:34:41;52763.03;;;13.78;100.00
54503;BME280;40411;50.090;21.954;2023-08-12T03:37:07;52215.47;;;14.07;100.00
54503;BME280;40411;50.090;21.954;2023-08-12T03:39:33;51983.19;;;14.14;100.00
54503;BME280;40411;50.090;21.954;2023-08-12T03:42:00;52151.50;;;14.12;100.00
54503;BME280;40411;50.090;21.954;2023-08-12T03:44:26;51754.44;;;14.24;100.00
54503;BME280;40411;50.090;21.954;2023-08-12T03:46:52;52181.09;;;14.09;100.00
54503;BME280;40411;50.090;21.954;2023-08-12T03:49:18;51404.72;;;14.31;100.00
54503;BME280;40411;50.090;21.954;2023-08-12T03:51:45;50869.69;;;14.51;100.00
54503;BME280;40411;50.090;21.954;2023-08-12T03:54:11;50705.72;;;14.65;100.00
54503;BME280;40411;50.090;21.954;2023-08-12T03:56:37;50428.22;;;14.71;100.00
54503;BME280;40411;50.090;21.954;2023-08-12T03:59:03;50291.16;;;14.67;100.00
54503;BME280;40411;50.090;21.954;2023-08-12T04:01:30;49921.47;;;14.85;100.00
54503;BME280;40411;50.090;21.954;2023-08-12T04:03:56;49547.66;;;15.04;100.00
54503;BME280;40411;50.090;21.954;2023-08-12T04:06:22;49784.34;;;14.96;100.00
54503;BME280;40411;50.090;21.954;2023-08-12T04:08:47;49415.78;;;15.06;100.00
54503;BME280;40411;50.090;21.954;2023-08-12T04:11:13;48849.63;;;15.25;100.00
54503;BME280;40411;50.090;21.954;2023-08-12T04:13:40;48096.56;;;15.61;98.28
54503;BME280;40411;50.090;21.954;2023-08-12T04:16:06;47585.03;;;15.74;99.03
54503;BME280;40411;50.090;21.954;2023-08-12T04:18:32;49854.31;;;14.70;100.00
54503;BME280;40411;50.090;21.954;2023-08-12T04:20:59;50100.47;;;14.49;100.00
54503;BME280;40411;50.090;21.954;2023-08-12T04:23:25;49770.13;;;14.67;100.00
54503;BME280;40411;50.090;21.954;2023-08-12T04:25:52;49077.31;;;14.90;100.00
54503;BME280;40411;50.090;21.954;2023-08-12T04:28:22;49175.97;;;14.89;100.00
54503;BME280;40411;50.090;21.954;2023-08-12T04:30:49;46579.78;;;15.85;100.00
54503;BME280;40411;50.090;21.954;2023-08-12T04:33:16;45092.44;;;16.47;96.96
54503;BME280;40411;50.090;21.954;2023-08-12T04:35:43;44132.38;;;16.78;95.81
54503;BME280;40411;50.090;21.954;2023-08-12T04:38:11;43904.03;;;16.88;94.71
54503;BME280;40411;50.090;21.954;2023-08-12T04:40:39;43741.06;;;16.91;95.21
54503;BME280;40411;50.090;21.954;2023-08-12T04:43:09;42791.94;;;17.10;95.40
54503;BME280;40411;50.090;21.954;2023-08-12T04:45:36;42756.34;;;17.18;94.44
54503;BME280;40411;50.090;21.954;2023-08-12T04:48:03;41299.38;;;17.50;94.14
54503;BME280;40411;50.090;21.954;2023-08-12T04:50:32;42281.09;;;17.22;95.59
54503;BME280;40411;50.090;21.954;2023-08-12T04:53:00;40977.91;;;17.45;96.70
54503;BME280;40411;50.090;21.954;2023-08-12T04:55:27;40089.06;;;17.60;96.50
54503;BME280;40411;50.090;21.954;2023-08-12T04:57:53;38576.47;;;17.97;95.09
54503;BME280;40411;50.090;21.954;2023-08-12T05:00:20;37041.03;;;18.25;94.99
54503;BME280;40411;50.090;21.954;2023-08-12T05:02:46;38117.16;;;18.09;94.66
54503;BME280;40411;50.090;21.954;2023-08-12T05:05:13;37427.16;;;18.29;93.31
54503;BME280;40411;50.090;21.954;2023-08-12T05:07:38;36833.03;;;18.36;93.88
54503;BME280;40411;50.090;21.954;2023-08-12T05:10:05;35518.72;;;18.62;93.02
54503;BME280;40411;50.090;21.954;2023-08-12T05:12:31;34680.31;;;18.95;90.51
54503;BME280;40411;50.090;21.954;2023-08-12T05:14:57;32095.63;;;19.29;92.57
54503;BME280;40411;50.090;21.954;2023-08-12T05:17:23;32098.53;;;19.34;92.05
54503;BME280;40411;50.090;21.954;2023-08-12T05:19:49;31439.78;;;19.58;90.81
54503;BME280;40411;50.090;21.954;2023-08-12T05:22:16;30114.84;;;19.94;89.71
54503;BME280;40411;50.090;21.954;2023-08-12T05:24:42;30774.53;;;19.71;90.66
54503;BME280;40411;50.090;21.954;2023-08-12T05:27:07;30091.94;;;19.51;95.26
54503;BME280;40411;50.090;21.954;2023-08-12T05:29:33;33115.16;;;19.48;87.27
54503;BME280;40411;50.090;21.954;2023-08-12T05:31:59;34447.34;;;19.27;87.51
54503;BME280;40411;50.090;21.954;2023-08-12T05:34:25;33472.91;;;19.62;85.54
54503;BME280;40411;50.090;21.954;2023-08-12T05:36:51;32132.63;;;19.94;84.82
54503;BME280;40411;50.090;21.954;2023-08-12T05:39:17;32473.41;;;20.02;83.88
54503;BME280;40411;50.090;21.954;2023-08-12T05:41:43;32138.41;;;20.04;84.02
54503;BME280;40411;50.090;21.954;2023-08-12T05:44:10;32466.97;;;19.91;85.17
54503;BME280;40411;50.090;21.954;2023-08-12T05:46:36;31478.34;;;20.27;83.35
54503;BME280;40411;50.090;21.954;2023-08-12T05:49:02;33607.78;;;19.77;84.04
54503;BME280;40411;50.090;21.954;2023-08-12T05:51:27;33478.06;;;19.94;82.63
54503;BME280;40411;50.090;21.954;2023-08-12T05:53:53;33144.88;;;19.99;82.32
54503;BME280;40411;50.090;21.954;2023-08-12T05:56:19;31151.44;;;20.45;82.03
54503;BME280;40411;50.090;21.954;2023-08-12T05:58:45;33144.56;;;19.99;82.60
54503;BME280;40411;50.090;21.954;2023-08-12T06:01:10;30155.53;;;20.70;81.39
54503;BME280;40411;50.090;21.954;2023-08-12T06:03:36;29491.97;;;20.89;80.64
54503;BME280;40411;50.090;21.954;2023-08-12T06:06:02;30168.34;;;20.94;78.43
54503;BME280;40411;50.090;21.954;2023-08-12T06:08:28;30839.94;;;20.91;78.55
54503;BME280;40411;50.090;21.954;2023-08-12T06:10:54;32162.69;;;20.47;80.10
54503;BME280;40411;50.090;21.954;2023-08-12T06:13:20;29508.84;;;21.21;77.72
54503;BME280;40411;50.090;21.954;2023-08-12T06:15:45;28520.06;;;21.63;75.84
54503;BME280;40411;50.090;21.954;2023-08-12T06:18:11;29521.72;;;21.46;75.67
54503;BME280;40411;50.090;21.954;2023-08-12T06:20:37;28862.03;;;21.73;74.67
54503;BME280;40411;50.090;21.954;2023-08-12T06:23:03;30524.13;;;21.30;76.77
54503;BME280;40411;50.090;21.954;2023-08-12T06:25:29;29523.84;;;21.50;76.42
54503;BME280;40411;50.090;21.954;2023-08-12T06:27:55;30852.75;;;21.14;77.34
54503;BME280;40411;50.090;21.954;2023-08-12T06:30:21;30849.69;;;21.09;78.18
54503;BME280;40411;50.090;21.954;2023-08-12T06:32:47;31514.97;;;20.93;78.03
54503;BME280;40411;50.090;21.954;2023-08-12T06:35:12;30507.88;;;21.00;80.33
54503;BME280;40411;50.090;21.954;2023-08-12T06:37:38;28183.91;;;21.65;77.83
54503;BME280;40411;50.090;21.954;2023-08-12T06:40:04;27514.09;;;21.73;78.59
54503;BME280;40411;50.090;21.954;2023-08-12T06:42:31;26819.13;;;21.29;84.98
54503;BME280;40411;50.090;21.954;2023-08-12T06:44:58;28847.34;;;21.45;77.84
54503;BME280;40411;50.090;21.954;2023-08-12T06:47:24;27851.56;;;21.74;76.97
54503;BME280;40411;50.090;21.954;2023-08-12T06:49:51;26187.84;;;22.18;76.38
54503;BME280;40411;50.090;21.954;2023-08-12T06:52:21;26545.38;;;22.61;71.17
54503;BME280;40411;50.090;21.954;2023-08-12T06:54:47;25886.56;;;22.95;70.61
54503;BME280;40411;50.090;21.954;2023-08-12T06:57:13;25547.28;;;22.91;71.17
54503;BME280;40411;50.090;21.954;2023-08-12T06:59:39;27890.25;;;22.52;71.25
54503;BME280;40411;50.090;21.954;2023-08-12T07:02:06;25223.22;;;23.20;70.23
54503;BME280;40411;50.090;21.954;2023-08-12T07:04:32;25891.59;;;23.06;70.08
54503;BME280;40411;50.090;21.954;2023-08-12T07:06:59;25560.97;;;23.20;69.84
54503;BME280;40411;50.090;21.954;2023-08-12T07:09:25;24558.06;;;23.42;69.78
54503;BME280;40411;50.090;21.954;2023-08-12T07:11:51;25896.34;;;23.16;69.33
54503;BME280;40411;50.090;21.954;2023-08-12T07:14:17;22209.88;;;23.76;72.16
54503;BME280;40411;50.090;21.954;2023-08-12T07:16:44;17883.97;;;25.51;65.42
54503;BME280;40411;50.090;21.954;2023-08-12T07:19:10;13216.00;;;27.83;57.19
54503;BME280;40411;50.090;21.954;2023-08-12T07:21:39;12550.03;;;28.29;55.77
54503;BME280;40411;50.090;21.954;2023-08-12T07:24:04;10884.28;;;29.55;49.68
54503;BME280;40411;50.090;21.954;2023-08-12T07:26:31;9884.97;;;30.44;47.01
54503;BME280;40411;50.090;21.954;2023-08-12T07:28:57;11237.25;;;30.11;45.93
54503;BME280;40411;50.090;21.954;2023-08-12T07:31:24;7856.66;;;31.03;48.13
54503;BME280;40411;50.090;21.954;2023-08-12T07:33:49;8549.91;;;31.69;42.14
54503;BME280;40411;50.090;21.954;2023-08-12T07:36:17;7204.09;;;32.59;39.80
54503;BME280;40411;50.090;21.954;2023-08-12T07:38:43;7550.81;;;32.91;37.68
54503;BME280;40411;50.090;21.954;2023-08-12T07:41:17;8222.94;;;32.39;39.49
54503;BME280;40411;50.090;21.954;2023-08-12T07:43:43;9237.97;;;32.02;40.19
54503;BME280;40411;50.090;21.954;2023-08-12T07:46:10;11265.44;;;31.29;40.50
54503;BME280;40411;50.090;21.954;2023-08-12T07:48:36;10593.19;;;31.68;39.72
54503;BME280;40411;50.090;21.954;2023-08-12T07:51:03;6188.63;;;33.03;40.95
54503;BME280;40411;50.090;21.954;2023-08-12T07:53:29;5182.00;;;34.14;36.65
54503;BME280;40411;50.090;21.954;2023-08-12T07:55:56;7231.13;;;34.12;33.34
54503;BME280;40411;50.090;21.954;2023-08-12T07:58:22;5508.63;;;33.15;42.03
54503;BME280;40411;50.090;21.954;2023-08-12T08:00:54;8245.78;;;33.58;34.18
54503;BME280;40411;50.090;21.954;2023-08-12T08:03:20;6204.63;;;34.02;35.69
54503;BME280;40411;50.090;21.954;2023-08-12T08:05:46;6530.84;;;33.10;40.31
54503;BME280;40411;50.090;21.954;2023-08-12T08:08:14;7217.34;;;33.34;37.70
54503;BME280;40411;50.090;21.954;2023-08-12T08:10:40;8923.38;;;33.31;34.80
54503;BME280;40411;50.090;21.954;2023-08-12T08:13:06;4173.66;;;35.37;33.36
54503;BME280;40411;50.090;21.954;2023-08-12T08:15:32;7920.66;;;34.45;31.08
54503;BME280;40411;50.090;21.954;2023-08-12T08:17:58;4855.19;;;35.19;33.52
54503;BME280;40411;50.090;21.954;2023-08-12T08:20:24;4856.56;;;35.28;33.06
54503;BME280;40411;50.090;21.954;2023-08-12T08:22:50;3501.63;;;36.37;29.96
54503;BME280;40411;50.090;21.954;2023-08-12T08:25:16;2808.28;;;35.61;34.99
54503;BME280;40411;50.090;21.954;2023-08-12T08:27:41;10285.03;;;33.13;34.20
54503;BME280;40411;50.090;21.954;2023-08-12T08:30:08;7248.91;;;35.12;30.14
54503;BME280;40411;50.090;21.954;2023-08-12T08:32:34;5551.00;;;35.96;29.79
54503;BME280;40411;50.090;21.954;2023-08-12T08:35:00;6561.84;;;34.96;32.30
54503;BME280;40411;50.090;21.954;2023-08-12T08:37:26;3839.06;;;35.96;31.67
54503;BME280;40411;50.090;21.954;2023-08-12T08:39:52;4529.22;;;36.36;29.89
54503;BME280;40411;50.090;21.954;2023-08-12T08:42:20;3158.78;;;36.34;31.97
54503;BME280;40411;50.090;21.954;2023-08-12T08:44:48;4191.13;;;36.71;28.42
54503;BME280;40411;50.090;21.954;2023-08-12T08:47:19;2482.94;;;37.20;29.03
54503;BME280;40411;50.090;21.954;2023-08-12T08:49:49;8613.84;;;34.92;29.43
54503;BME280;40411;50.090;21.954;2023-08-12T08:52:15;12672.56;;;33.01;31.74
54503;BME280;40411;50.090;21.954;2023-08-12T08:54:42;10300.06;;;33.80;32.06
54503;BME280;40411;50.090;21.954;2023-08-12T08:57:08;8259.69;;;34.30;33.17
54503;BME280;40411;50.090;21.954;2023-08-12T08:59:34;3841.25;;;36.14;32.13
54503;BME280;40411;50.090;21.954;2023-08-12T09:02:01;7580.44;;;34.54;33.51
54503;BME280;40411;50.090;21.954;2023-08-12T09:04:28;7915.06;;;34.15;34.26
54503;BME280;40411;50.090;21.954;2023-08-12T09:06:55;8260.78;;;34.36;32.99
54503;BME280;40411;50.090;21.954;2023-08-12T09:09:21;11664.09;;;33.67;30.90
54503;BME280;40411;50.090;21.954;2023-08-12T09:11:49;10633.97;;;33.46;33.53
54503;BME280;40411;50.090;21.954;2023-08-12T09:14:17;9959.31;;;33.85;33.10
54503;BME280;40411;50.090;21.954;2023-08-12T09:16:43;8607.94;;;34.62;31.80
54503;BME280;40411;50.090;21.954;2023-08-12T09:19:09;9980.19;;;34.80;28.78
54503;BME280;40411;50.090;21.954;2023-08-12T09:21:35;5211.09;;;36.13;30.61
54503;BME280;40411;50.090;21.954;2023-08-12T09:24:05;8609.88;;;34.72;31.13
54503;BME280;40411;50.090;21.954;2023-08-12T09:26:32;9960.88;;;33.92;33.04
54503;BME280;40411;50.090;21.954;2023-08-12T09:28:59;9286.22;;;34.34;32.15
54503;BME280;40411;50.090;21.954;2023-08-12T09:31:30;8610.78;;;34.77;30.71
54503;BME280;40411;50.090;21.954;2023-08-12T09:34:04;6919.63;;;35.87;29.54
54503;BME280;40411;50.090;21.954;2023-08-12T09:36:33;10667.84;;;34.93;27.76
54503;BME280;40411;50.090;21.954;2023-08-12T09:38:59;13037.16;;;33.88;29.10
54503;BME280;40411;50.090;21.954;2023-08-12T09:41:28;14739.38;;;33.59;28.09
54503;BME280;40411;50.090;21.954;2023-08-12T09:43:58;9304.19;;;35.20;29.25
54503;BME280;40411;50.090;21.954;2023-08-12T09:46:24;9999.53;;;35.68;26.44
54503;BME280;40411;50.090;21.954;2023-08-12T09:48:51;10683.03;;;35.59;25.75
54503;BME280;40411;50.090;21.954;2023-08-12T09:51:18;15081.44;;;33.59;28.33
54503;BME280;40411;50.090;21.954;2023-08-12T09:53:45;10668.06;;;34.94;28.78
54503;BME280;40411;50.090;21.954;2023-08-12T09:56:13;9985.47;;;35.04;29.37
54503;BME280;40411;50.090;21.954;2023-08-12T09:58:41;7260.75;;;35.79;30.01
54503;BME280;40411;50.090;21.954;2023-08-12T10:01:10;11691.38;;;34.78;27.97
54503;BME280;40411;50.090;21.954;2023-08-12T10:03:36;13738.06;;;34.48;28.07
54503;BME280;40411;50.090;21.954;2023-08-12T10:06:02;11678.41;;;34.25;30.11
54503;BME280;40411;50.090;21.954;2023-08-12T10:08:29;8280.38;;;35.37;30.64
54503;BME280;40411;50.090;21.954;2023-08-12T10:10:55;12693.28;;;33.80;30.87
54503;BME280;40411;50.090;21.954;2023-08-12T10:13:22;8961.59;;;35.19;30.27
54503;BME280;40411;50.090;21.954;2023-08-12T10:15:49;6246.16;;;36.58;28.17
54503;BME280;40411;50.090;21.954;2023-08-12T10:18:18;11013.00;;;35.05;27.88
54503;BME280;40411;50.090;21.954;2023-08-12T10:20:44;5562.44;;;36.71;28.35
54503;BME280;40411;50.090;21.954;2023-08-12T10:23:15;9666.06;;;36.11;25.83
54503;BME280;40411;50.090;21.954;2023-08-12T10:25:43;15749.88;;;33.08;30.24
54503;BME280;40411;50.090;21.954;2023-08-12T10:28:10;11698.91;;;35.08;27.08
54503;BME280;40411;50.090;21.954;2023-08-12T10:30:36;11700.44;;;35.14;27.17
54503;BME280;40411;50.090;21.954;2023-08-12T10:33:02;10694.72;;;36.10;25.24
54503;BME280;40411;50.090;21.954;2023-08-12T10:35:46;6590.84;;;36.69;28.28
54503;BME280;40411;50.090;21.954;2023-08-12T10:38:19;9645.41;;;35.14;29.88
54503;BME280;40411;50.090;21.954;2023-08-12T10:40:45;13407.63;;;34.92;26.53
54503;BME280;40411;50.090;21.954;2023-08-12T10:43:12;15423.22;;;33.58;29.25
54503;BME280;40411;50.090;21.954;2023-08-12T10:45:53;9302.59;;;35.12;30.74
54503;BME280;40411;50.090;21.954;2023-08-12T10:48:22;9308.16;;;35.39;29.22
54503;BME280;40411;50.090;21.954;2023-08-12T10:50:51;12695.41;;;33.89;31.50
54503;BME280;40411;50.090;21.954;2023-08-12T10:53:25;9982.22;;;34.89;30.42
54503;BME280;40411;50.090;21.954;2023-08-12T10:55:56;7259.09;;;35.70;31.36
54503;BME280;40411;50.090;21.954;2023-08-12T10:58:27;10306.16;;;34.07;34.37
54503;BME280;40411;50.090;21.954;2023-08-12T11:00:54;19798.72;;;31.58;32.18
54503;BME280;40411;50.090;21.954;2023-08-12T11:03:21;16079.56;;;32.69;32.10
54503;BME280;40411;50.090;21.954;2023-08-12T11:05:47;16446.53;;;33.48;28.86
54503;BME280;40411;50.090;21.954;2023-08-12T11:08:13;19140.47;;;32.26;29.78
54503;BME280;40411;50.090;21.954;2023-08-12T11:10:39;21818.00;;;30.84;35.05
54503;BME280;40411;50.090;21.954;2023-08-12T11:13:06;17060.31;;;31.34;37.81
54503;BME280;40411;50.090;21.954;2023-08-12T11:18:02;13346.16;;;32.66;36.86
54503;BME280;40411;50.090;21.954;2023-08-12T11:20:30;20487.91;;;31.74;31.31
54503;BME280;40411;50.090;21.954;2023-08-12T11:22:56;16441.31;;;33.32;29.41
54503;BME280;40411;50.090;21.954;2023-08-12T11:25:24;15067.25;;;33.11;32.01
54503;BME280;40411;50.090;21.954;2023-08-12T11:27:50;14385.44;;;33.18;32.40
54503;BME280;40411;50.090;21.954;2023-08-12T11:30:17;12341.09;;;33.41;34.42
54503;BME280;40411;50.090;21.954;2023-08-12T11:32:56;15746.72;;;32.98;32.28
54503;BME280;40411;50.090;21.954;2023-08-12T11:35:24;11651.66;;;33.16;37.79
54503;BME280;40411;50.090;21.954;2023-08-12T11:37:52;19789.81;;;31.34;33.46
54503;BME280;40411;50.090;21.954;2023-08-12T11:40:19;20788.56;;;30.68;35.80
54503;BME280;40411;50.090;21.954;2023-08-12T11:42:47;21471.94;;;30.71;34.86
54503;BME280;40411;50.090;21.954;2023-08-12T11:45:15;17743.41;;;31.36;36.39
54503;BME280;40411;50.090;21.954;2023-08-12T11:47:42;19131.97;;;32.02;31.50
54503;BME280;40411;50.090;21.954;2023-08-12T11:50:10;16747.59;;;32.21;33.96
54503;BME280;40411;50.090;21.954;2023-08-12T11:52:38;18447.56;;;31.99;33.10
54503;BME280;40411;50.090;21.954;2023-08-12T11:55:08;19456.00;;;31.54;33.90
54503;BME280;40411;50.090;21.954;2023-08-12T11:57:34;23157.78;;;30.24;35.08
54503;BME280;40411;50.090;21.954;2023-08-12T12:00:04;21834.88;;;31.26;32.47
54503;BME280;40411;50.090;21.954;2023-08-12T12:02:48;19101.56;;;31.18;36.22
54503;BME280;40411;50.090;21.954;2023-08-12T12:05:16;21478.44;;;30.88;34.06
54503;BME280;40411;50.090;21.954;2023-08-12T12:07:42;19793.63;;;31.44;33.72
54503;BME280;40411;50.090;21.954;2023-08-12T12:10:13;21149.25;;;31.19;33.87
54503;BME280;40411;50.090;21.954;2023-08-12T12:12:41;16028.81;;;31.07;41.78
54503;BME280;40411;50.090;21.954;2023-08-12T12:15:07;19771.81;;;30.85;37.33
54503;BME280;40411;50.090;21.954;2023-08-12T12:17:38;17067.91;;;31.57;37.42
54503;BME280;40411;50.090;21.954;2023-08-12T12:20:04;18763.66;;;31.27;36.14
54503;BME280;40411;50.090;21.954;2023-08-12T12:22:33;18779.47;;;31.72;34.45
54503;BME280;40411;50.090;21.954;2023-08-12T12:25:07;19443.66;;;31.21;36.17
54503;BME280;40411;50.090;21.954;2023-08-12T12:27:33;21139.63;;;30.94;35.55
54503;BME280;40411;50.090;21.954;2023-08-12T12:30:02;19800.63;;;31.63;33.64
54503;BME280;40411;50.090;21.954;2023-08-12T12:32:28;23517.47;;;30.67;33.47
54503;BME280;40411;50.090;21.954;2023-08-12T12:34:54;21140.44;;;30.96;34.57
54503;BME280;40411;50.090;21.954;2023-08-12T12:37:21;19788.09;;;31.29;35.55
54503;BME280;40411;50.090;21.954;2023-08-12T12:39:48;22159.03;;;30.83;34.20
54503;BME280;40411;50.090;21.954;2023-08-12T12:42:19;16401.06;;;32.05;36.12
54503;BME280;40411;50.090;21.954;2023-08-12T12:44:46;14029.38;;;32.67;36.70
54503;BME280;40411;50.090;21.954;2023-08-12T12:47:13;18430.03;;;31.49;36.08
54503;BME280;40411;50.090;21.954;2023-08-12T12:49:39;17074.63;;;31.77;36.53
54503;BME280;40411;50.090;21.954;2023-08-12T12:52:07;16064.16;;;32.20;35.54
54503;BME280;40411;50.090;21.954;2023-08-12T12:54:33;16068.66;;;32.34;35.19